Airfield :
LOGIN :

Register | Disclaimer

   EN    FR    IT 

 










Legend :    VFR   Marginal VFR   IFR   Intensive IFR   Very Intensive IFR
Visi :
Ceiling :
>= 8 km
>= 3000ft
5 to 8 km
1000 to 3000 ft
1500m to 5 km
500 to 1000 ft
800 to 1500m
200 to 500 ft
< 800m
< 200 ft
Symbols :   Thunderstorms  Fog  Heavy snow  Heavy precipitations  Wind > 20 kt
SIGMETs :     Misc.  Thunderstorms  Icing  Turbulence  Mountain Waves  Volcanic Ashes







- Airport Elevation : 1416 ft
- IATA code : ZRH


LSZH - Zurich

CURRENT METAR :
  • 211650Z 18003KT 9999 FEW023 FEW035TCU SCT060 BKN110 19/16 Q1015 NOSIG

EXPIRED METARs :
  • 211620Z 23006KT 180V260 9999 -SHRA FEW020 FEW035TCU SCT080 BKN100 19/16 Q1015 NOSIG
  • 211550Z 24007KT 9999 -SHRA FEW020 FEW035CB SCT080 BKN100 19/16 Q1015 TEMPO SHRA
  • 211520Z 23008KT 9999 FEW020 FEW035CB SCT080 BKN100 20/15 Q1014 NOSIG
  • 211450Z 25007KT 9999 FEW025 FEW035CB SCT090 BKN110 20/15 Q1014 NOSIG
  • 211420Z 29007KT 9999 VCSH FEW025 FEW030TCU BKN090 19/15 Q1014 NOSIG

TAF TAF LSZH
Valid from the 21 at 15:00 until the 22 at 21:00 UTC


211425Z 2115/2221 29007KT 9999 FEW025 SCT030 BKN090 TX20/2115Z TN15/2204Z TX24/2214Z
TEMPO 2115/2218 SHRA FEW030TCU
PROB30
TEMPO 2115/2117 TSRA FEW030CB
BECMG 2117/2119 23004KT
PROB30
TEMPO 2212/2216 34013KT TSRA SCT050CB
TEMPO 2215/2219 03007KT
ATIS : +41 43 816 2295 (DEP) +41 43 816 2294 (ARR)
No reported NOTAMs for that airfield.



MET'MAP, your aeronautical weather chart ! - Copyright ORBIFLY December 2007 - Disclaimer

ORBIFLY MET'MAP TEAM :

Programming & Development : Alexandra Zaïnal
Concept & Development : Baudouin d'Aumeries
Co-Development & Prog : Marc-Olivier Méhu
Technical & hardware support : Manuel Goepfert

Contact : metmap@orbifly.com




SOURCES & CREDITS :

   NOAA